sensor_id;sensor_type;location;lat;lon;timestamp;pressure;altitude;pressure_sealevel;temperature;humidity
74936;BME280;63501;55.570;37.488;2023-05-19T00:02:25;99547.66;;;15.52;69.03
74936;BME280;63501;55.570;37.488;2023-05-19T00:04:53;99549.22;;;15.53;69.38
74936;BME280;63501;55.570;37.488;2023-05-19T00:07:24;99555.59;;;15.53;69.41
74936;BME280;63501;55.570;37.488;2023-05-19T00:09:54;99556.81;;;15.52;69.61
74936;BME280;63501;55.570;37.488;2023-05-19T00:12:22;99556.81;;;15.52;68.95
74936;BME280;63501;55.570;37.488;2023-05-19T00:14:49;99553.28;;;15.48;68.93
74936;BME280;63501;55.570;37.488;2023-05-19T00:17:18;99553.66;;;15.50;68.77
74936;BME280;63501;55.570;37.488;2023-05-19T00:19:45;99556.44;;;15.50;69.35
74936;BME280;63501;55.570;37.488;2023-05-19T00:22:13;99562.38;;;15.52;68.50
74936;BME280;63501;55.570;37.488;2023-05-19T00:24:41;99572.38;;;15.50;68.66
74936;BME280;63501;55.570;37.488;2023-05-19T00:27:07;99570.44;;;15.47;68.73
74936;BME280;63501;55.570;37.488;2023-05-19T00:29:35;99568.50;;;15.44;68.90
74936;BME280;63501;55.570;37.488;2023-05-19T00:32:02;99578.91;;;15.40;68.93
74936;BME280;63501;55.570;37.488;2023-05-19T00:34:31;99582.94;;;15.35;69.27
74936;BME280;63501;55.570;37.488;2023-05-19T00:36:58;99590.16;;;15.32;69.27
74936;BME280;63501;55.570;37.488;2023-05-19T00:39:25;99587.41;;;15.29;69.50
74936;BME280;63501;55.570;37.488;2023-05-19T00:41:52;99588.63;;;15.28;69.74
74936;BME280;63501;55.570;37.488;2023-05-19T00:44:19;99584.66;;;15.25;69.37
74936;BME280;63501;55.570;37.488;2023-05-19T00:46:46;99578.31;;;15.25;70.15
74936;BME280;63501;55.570;37.488;2023-05-19T00:49:13;99589.09;;;15.23;70.40
74936;BME280;63501;55.570;37.488;2023-05-19T00:51:42;99593.09;;;15.22;70.37
74936;BME280;63501;55.570;37.488;2023-05-19T00:54:09;99580.41;;;15.17;69.47
74936;BME280;63501;55.570;37.488;2023-05-19T00:56:36;99582.84;;;15.15;69.61
74936;BME280;63501;55.570;37.488;2023-05-19T00:59:03;99587.25;;;15.13;69.78
74936;BME280;63501;55.570;37.488;2023-05-19T01:01:31;99579.31;;;15.11;69.63
74936;BME280;63501;55.570;37.488;2023-05-19T01:03:58;99584.13;;;15.07;70.58
74936;BME280;63501;55.570;37.488;2023-05-19T01:06:27;99592.53;;;15.03;70.42
74936;BME280;63501;55.570;37.488;2023-05-19T01:08:56;99592.19;;;14.98;70.95
74936;BME280;63501;55.570;37.488;2023-05-19T01:11:23;99594.28;;;14.90;70.35
74936;BME280;63501;55.570;37.488;2023-05-19T01:13:50;99600.31;;;14.85;70.99
74936;BME280;63501;55.570;37.488;2023-05-19T01:16:21;99592.44;;;14.80;71.78
74936;BME280;63501;55.570;37.488;2023-05-19T01:18:57;99599.63;;;14.77;71.37
74936;BME280;63501;55.570;37.488;2023-05-19T01:21:50;99593.28;;;14.77;71.11
74936;BME280;63501;55.570;37.488;2023-05-19T01:24:48;99596.47;;;14.75;71.45
74936;BME280;63501;55.570;37.488;2023-05-19T01:27:36;99600.09;;;14.72;71.23
74936;BME280;63501;55.570;37.488;2023-05-19T01:30:23;99594.19;;;14.67;70.75
74936;BME280;63501;55.570;37.488;2023-05-19T01:32:53;99605.31;;;14.67;71.16
74936;BME280;63501;55.570;37.488;2023-05-19T01:35:22;99604.13;;;14.64;71.50
74936;BME280;63501;55.570;37.488;2023-05-19T01:37:50;99593.44;;;14.63;71.12
74936;BME280;63501;55.570;37.488;2023-05-19T01:40:19;99606.97;;;14.61;71.37
74936;BME280;63501;55.570;37.488;2023-05-19T01:42:47;99600.25;;;14.58;71.26
74936;BME280;63501;55.570;37.488;2023-05-19T01:45:17;99606.22;;;14.57;70.87
74936;BME280;63501;55.570;37.488;2023-05-19T01:47:47;99607.78;;;14.58;71.74
74936;BME280;63501;55.570;37.488;2023-05-19T01:50:15;99609.84;;;14.53;70.79
74936;BME280;63501;55.570;37.488;2023-05-19T01:52:42;99600.31;;;14.51;71.57
74936;BME280;63501;55.570;37.488;2023-05-19T01:55:09;99608.69;;;14.47;71.87
74936;BME280;63501;55.570;37.488;2023-05-19T01:57:44;99603.94;;;14.44;70.96
74936;BME280;63501;55.570;37.488;2023-05-19T02:00:20;99604.75;;;14.41;71.92
74936;BME280;63501;55.570;37.488;2023-05-19T02:02:55;99607.19;;;14.36;72.16
74936;BME280;63501;55.570;37.488;2023-05-19T02:05:32;99608.81;;;14.33;72.26
74936;BME280;63501;55.570;37.488;2023-05-19T02:08:07;99612.81;;;14.32;71.66
74936;BME280;63501;55.570;37.488;2023-05-19T02:10:39;99604.13;;;14.26;72.66
74936;BME280;63501;55.570;37.488;2023-05-19T02:13:10;99613.78;;;14.15;72.57
74936;BME280;63501;55.570;37.488;2023-05-19T02:15:41;99613.88;;;14.04;72.18
74936;BME280;63501;55.570;37.488;2023-05-19T02:18:09;99619.88;;;13.99;72.14
74936;BME280;63501;55.570;37.488;2023-05-19T02:20:37;99622.66;;;13.95;72.38
74936;BME280;63501;55.570;37.488;2023-05-19T02:23:04;99622.72;;;13.92;73.04
74936;BME280;63501;55.570;37.488;2023-05-19T02:25:31;99621.97;;;13.84;72.45
74936;BME280;63501;55.570;37.488;2023-05-19T02:27:58;99623.59;;;13.78;72.42
74936;BME280;63501;55.570;37.488;2023-05-19T02:30:25;99621.31;;;13.66;73.60
74936;BME280;63501;55.570;37.488;2023-05-19T02:32:53;99636.44;;;13.58;73.43
74936;BME280;63501;55.570;37.488;2023-05-19T02:35:20;99632.09;;;13.57;73.43
74936;BME280;63501;55.570;37.488;2023-05-19T02:37:47;99626.97;;;13.52;73.14
74936;BME280;63501;55.570;37.488;2023-05-19T02:40:14;99634.19;;;13.42;72.58
74936;BME280;63501;55.570;37.488;2023-05-19T02:42:41;99637.78;;;13.35;72.73
74936;BME280;63501;55.570;37.488;2023-05-19T02:45:09;99641.78;;;13.31;72.57
74936;BME280;63501;55.570;37.488;2023-05-19T02:47:36;99638.22;;;13.27;72.64
74936;BME280;63501;55.570;37.488;2023-05-19T02:50:06;99644.19;;;13.18;72.22
74936;BME280;63501;55.570;37.488;2023-05-19T02:52:33;99642.28;;;13.08;72.97
74936;BME280;63501;55.570;37.488;2023-05-19T02:55:01;99645.84;;;13.05;72.63
74936;BME280;63501;55.570;37.488;2023-05-19T02:57:28;99657.34;;;13.00;71.96
74936;BME280;63501;55.570;37.488;2023-05-19T02:59:56;99657.38;;;12.92;71.68
74936;BME280;63501;55.570;37.488;2023-05-19T03:02:23;99655.81;;;12.88;71.79
74936;BME280;63501;55.570;37.488;2023-05-19T03:04:50;99662.16;;;12.88;70.62
74936;BME280;63501;55.570;37.488;2023-05-19T03:07:19;99665.34;;;12.87;69.88
74936;BME280;63501;55.570;37.488;2023-05-19T03:09:49;99675.66;;;12.86;69.59
74936;BME280;63501;55.570;37.488;2023-05-19T03:12:16;99669.69;;;12.84;69.22
74936;BME280;63501;55.570;37.488;2023-05-19T03:14:44;99683.97;;;12.83;68.96
74936;BME280;63501;55.570;37.488;2023-05-19T03:17:11;99689.56;;;12.76;68.57
74936;BME280;63501;55.570;37.488;2023-05-19T03:19:38;99690.75;;;12.71;67.89
74936;BME280;63501;55.570;37.488;2023-05-19T03:22:05;99681.66;;;12.60;67.90
74936;BME280;63501;55.570;37.488;2023-05-19T03:24:34;99685.22;;;12.57;67.15
74936;BME280;63501;55.570;37.488;2023-05-19T03:27:01;99692.75;;;12.56;66.82
74936;BME280;63501;55.570;37.488;2023-05-19T03:29:29;99689.97;;;12.60;66.73
74936;BME280;63501;55.570;37.488;2023-05-19T03:31:56;99697.88;;;12.61;66.62
74936;BME280;63501;55.570;37.488;2023-05-19T03:34:24;99708.19;;;12.64;66.07
74936;BME280;63501;55.570;37.488;2023-05-19T03:36:51;99703.44;;;12.68;65.83
74936;BME280;63501;55.570;37.488;2023-05-19T03:39:18;99703.41;;;12.72;65.70
74936;BME280;63501;55.570;37.488;2023-05-19T03:41:46;99701.44;;;12.76;65.38
74936;BME280;63501;55.570;37.488;2023-05-19T03:44:13;99710.94;;;12.79;64.97
74936;BME280;63501;55.570;37.488;2023-05-19T03:46:40;99713.72;;;12.82;65.12
74936;BME280;63501;55.570;37.488;2023-05-19T03:49:07;99714.50;;;12.83;65.02
74936;BME280;63501;55.570;37.488;2023-05-19T03:51:36;99711.31;;;12.84;64.77
74936;BME280;63501;55.570;37.488;2023-05-19T03:54:03;99704.19;;;12.83;63.80
74936;BME280;63501;55.570;37.488;2023-05-19T03:56:30;99713.31;;;12.80;64.39
74936;BME280;63501;55.570;37.488;2023-05-19T03:58:59;99716.47;;;12.79;64.11
74936;BME280;63501;55.570;37.488;2023-05-19T04:01:26;99716.47;;;12.79;63.76
74936;BME280;63501;55.570;37.488;2023-05-19T04:03:53;99722.84;;;12.76;64.53
74936;BME280;63501;55.570;37.488;2023-05-19T04:06:20;99720.47;;;12.70;64.72
74936;BME280;63501;55.570;37.488;2023-05-19T04:08:48;99724.06;;;12.64;64.48
74936;BME280;63501;55.570;37.488;2023-05-19T04:11:15;99726.41;;;12.62;64.52
74936;BME280;63501;55.570;37.488;2023-05-19T04:13:44;99722.47;;;12.63;64.09
74936;BME280;63501;55.570;37.488;2023-05-19T04:16:13;99725.25;;;12.59;64.48
74936;BME280;63501;55.570;37.488;2023-05-19T04:18:40;99727.22;;;12.59;64.02
74936;BME280;63501;55.570;37.488;2023-05-19T04:21:09;99731.56;;;12.60;64.28
74936;BME280;63501;55.570;37.488;2023-05-19T04:23:36;99724.84;;;12.57;63.90
74936;BME280;63501;55.570;37.488;2023-05-19T04:26:04;99736.34;;;12.49;64.52
74936;BME280;63501;55.570;37.488;2023-05-19T04:28:31;99730.00;;;12.48;64.85
74936;BME280;63501;55.570;37.488;2023-05-19T04:31:00;99730.81;;;12.41;64.50
74936;BME280;63501;55.570;37.488;2023-05-19T04:33:29;99726.44;;;12.33;64.44
74936;BME280;63501;55.570;37.488;2023-05-19T04:35:58;99732.78;;;12.30;64.91
74936;BME280;63501;55.570;37.488;2023-05-19T04:38:32;99732.00;;;12.30;64.46
74936;BME280;63501;55.570;37.488;2023-05-19T04:41:01;99731.19;;;12.26;64.98
74936;BME280;63501;55.570;37.488;2023-05-19T04:43:28;99734.75;;;12.23;64.70
74936;BME280;63501;55.570;37.488;2023-05-19T04:45:56;99740.31;;;12.30;64.48
74936;BME280;63501;55.570;37.488;2023-05-19T04:48:23;99732.41;;;12.35;64.65
74936;BME280;63501;55.570;37.488;2023-05-19T04:50:53;99741.09;;;12.37;65.09
74936;BME280;63501;55.570;37.488;2023-05-19T04:53:20;99739.91;;;12.38;64.93
74936;BME280;63501;55.570;37.488;2023-05-19T04:55:47;99736.72;;;12.40;64.56
74936;BME280;63501;55.570;37.488;2023-05-19T04:58:14;99743.50;;;12.46;64.67
74936;BME280;63501;55.570;37.488;2023-05-19T05:00:41;99735.56;;;12.48;65.36
74936;BME280;63501;55.570;37.488;2023-05-19T05:03:08;99739.13;;;12.49;65.07
74936;BME280;63501;55.570;37.488;2023-05-19T05:05:36;99733.16;;;12.50;65.45
74936;BME280;63501;55.570;37.488;2023-05-19T05:08:05;99730.00;;;12.52;64.73
74936;BME280;63501;55.570;37.488;2023-05-19T05:10:32;99744.66;;;12.45;65.20
74936;BME280;63501;55.570;37.488;2023-05-19T05:13:00;99749.03;;;12.35;65.75
74936;BME280;63501;55.570;37.488;2023-05-19T05:15:27;99748.63;;;12.30;65.59
74936;BME280;63501;55.570;37.488;2023-05-19T05:17:55;99754.97;;;12.27;66.01
74936;BME280;63501;55.570;37.488;2023-05-19T05:20:23;99751.78;;;12.21;65.65
74936;BME280;63501;55.570;37.488;2023-05-19T05:22:50;99757.72;;;12.23;65.73
74936;BME280;63501;55.570;37.488;2023-05-19T05:25:20;99755.75;;;12.24;66.43
74936;BME280;63501;55.570;37.488;2023-05-19T05:27:47;99763.69;;;12.25;65.97
74936;BME280;63501;55.570;37.488;2023-05-19T05:30:14;99761.28;;;12.27;65.74
74936;BME280;63501;55.570;37.488;2023-05-19T05:32:41;99762.88;;;12.28;66.72
74936;BME280;63501;55.570;37.488;2023-05-19T05:35:09;99768.03;;;12.19;65.68
74936;BME280;63501;55.570;37.488;2023-05-19T05:37:36;99763.66;;;12.11;66.00
74936;BME280;63501;55.570;37.488;2023-05-19T05:40:03;99767.63;;;12.10;66.75
74936;BME280;63501;55.570;37.488;2023-05-19T05:42:32;99775.53;;;12.08;66.79
74936;BME280;63501;55.570;37.488;2023-05-19T05:44:59;99777.13;;;12.09;67.23
74936;BME280;63501;55.570;37.488;2023-05-19T05:47:27;99779.50;;;12.10;66.74
74936;BME280;63501;55.570;37.488;2023-05-19T05:49:54;99778.69;;;12.10;67.34
74936;BME280;63501;55.570;37.488;2023-05-19T05:52:23;99779.91;;;12.12;67.27
74936;BME280;63501;55.570;37.488;2023-05-19T05:54:54;99785.44;;;12.12;67.57
74936;BME280;63501;55.570;37.488;2023-05-19T05:57:22;99785.06;;;12.14;67.07
74936;BME280;63501;55.570;37.488;2023-05-19T05:59:50;99789.00;;;12.13;67.90
74936;BME280;63501;55.570;37.488;2023-05-19T06:02:18;99791.75;;;12.09;67.96
74936;BME280;63501;55.570;37.488;2023-05-19T06:04:45;99792.97;;;12.08;67.91
74936;BME280;63501;55.570;37.488;2023-05-19T06:07:12;99792.94;;;12.01;68.06
74936;BME280;63501;55.570;37.488;2023-05-19T06:09:39;99794.50;;;11.99;67.87
74936;BME280;63501;55.570;37.488;2023-05-19T06:12:06;99790.97;;;12.02;67.96
74936;BME280;63501;55.570;37.488;2023-05-19T06:14:33;99795.31;;;12.06;67.40
74936;BME280;63501;55.570;37.488;2023-05-19T06:17:02;99788.97;;;12.06;67.40
74936;BME280;63501;55.570;37.488;2023-05-19T06:19:29;99788.59;;;12.04;68.02
74936;BME280;63501;55.570;37.488;2023-05-19T06:21:56;99787.78;;;12.03;67.50
74936;BME280;63501;55.570;37.488;2023-05-19T06:24:23;99787.41;;;12.05;67.06
74936;BME280;63501;55.570;37.488;2023-05-19T06:26:51;99792.16;;;12.08;67.67
74936;BME280;63501;55.570;37.488;2023-05-19T06:29:18;99785.44;;;12.09;67.92
74936;BME280;63501;55.570;37.488;2023-05-19T06:31:45;99787.03;;;12.13;67.41
74936;BME280;63501;55.570;37.488;2023-05-19T06:34:13;99781.88;;;12.23;67.69
74936;BME280;63501;55.570;37.488;2023-05-19T06:36:42;99786.63;;;12.40;66.97
74936;BME280;63501;55.570;37.488;2023-05-19T06:39:09;99792.59;;;12.56;67.13
74936;BME280;63501;55.570;37.488;2023-05-19T06:41:36;99790.22;;;12.65;66.68
74936;BME280;63501;55.570;37.488;2023-05-19T06:44:03;99789.41;;;12.72;66.64
74936;BME280;63501;55.570;37.488;2023-05-19T06:46:30;99794.97;;;12.72;66.38
74936;BME280;63501;55.570;37.488;2023-05-19T06:48:57;99800.94;;;12.74;67.03
74936;BME280;63501;55.570;37.488;2023-05-19T06:51:25;99798.53;;;12.76;67.06
74936;BME280;63501;55.570;37.488;2023-05-19T06:53:53;99800.91;;;12.78;66.15
74936;BME280;63501;55.570;37.488;2023-05-19T06:56:20;99798.16;;;12.81;66.00
74936;BME280;63501;55.570;37.488;2023-05-19T06:58:47;99802.88;;;12.84;66.17
74936;BME280;63501;55.570;37.488;2023-05-19T07:01:14;99802.09;;;12.94;65.65
74936;BME280;63501;55.570;37.488;2023-05-19T07:03:41;99805.63;;;13.06;66.01
74936;BME280;63501;55.570;37.488;2023-05-19T07:06:08;99794.50;;;13.20;65.84
74936;BME280;63501;55.570;37.488;2023-05-19T07:08:36;99795.69;;;13.33;65.44
74936;BME280;63501;55.570;37.488;2023-05-19T07:11:03;99795.66;;;13.47;65.17
74936;BME280;63501;55.570;37.488;2023-05-19T07:13:30;99796.78;;;13.61;64.18
74936;BME280;63501;55.570;37.488;2023-05-19T07:15:58;99798.31;;;13.69;63.94
74936;BME280;63501;55.570;37.488;2023-05-19T07:18:25;99804.66;;;13.73;63.73
74936;BME280;63501;55.570;37.488;2023-05-19T07:20:54;99798.28;;;13.80;62.71
74936;BME280;63501;55.570;37.488;2023-05-19T07:23:22;99790.31;;;13.85;63.00
74936;BME280;63501;55.570;37.488;2023-05-19T07:25:53;99799.78;;;13.95;62.78
74936;BME280;63501;55.570;37.488;2023-05-19T07:28:20;99797.75;;;14.02;61.63
74936;BME280;63501;55.570;37.488;2023-05-19T07:30:47;99805.28;;;14.06;62.19
74936;BME280;63501;55.570;37.488;2023-05-19T07:33:14;99802.88;;;14.08;61.19
74936;BME280;63501;55.570;37.488;2023-05-19T07:35:41;99800.94;;;14.01;60.97
74936;BME280;63501;55.570;37.488;2023-05-19T07:38:09;99806.13;;;13.99;62.00
74936;BME280;63501;55.570;37.488;2023-05-19T07:40:36;99804.16;;;13.96;62.01
74936;BME280;63501;55.570;37.488;2023-05-19T07:43:04;99799.38;;;13.96;61.65
74936;BME280;63501;55.570;37.488;2023-05-19T07:45:31;99806.53;;;13.97;61.82
74936;BME280;63501;55.570;37.488;2023-05-19T07:47:58;99802.94;;;14.00;60.98
74936;BME280;63501;55.570;37.488;2023-05-19T07:50:25;99804.09;;;14.07;61.56
74936;BME280;63501;55.570;37.488;2023-05-19T07:52:52;99799.72;;;14.09;61.58
74936;BME280;63501;55.570;37.488;2023-05-19T07:55:20;99796.53;;;14.14;60.45
74936;BME280;63501;55.570;37.488;2023-05-19T07:57:47;99794.84;;;14.24;60.50
74936;BME280;63501;55.570;37.488;2023-05-19T08:00:16;99789.63;;;14.33;60.79
74936;BME280;63501;55.570;37.488;2023-05-19T08:02:44;99795.13;;;14.44;60.90
74936;BME280;63501;55.570;37.488;2023-05-19T08:05:11;99797.38;;;14.63;60.23
74936;BME280;63501;55.570;37.488;2023-05-19T08:07:38;99788.84;;;14.81;60.54
74936;BME280;63501;55.570;37.488;2023-05-19T08:10:06;99793.50;;;14.98;59.19
74936;BME280;63501;55.570;37.488;2023-05-19T08:12:33;99787.00;;;15.08;59.25
74936;BME280;63501;55.570;37.488;2023-05-19T08:15:00;99798.88;;;15.16;57.80
74936;BME280;63501;55.570;37.488;2023-05-19T08:17:30;99804.03;;;15.18;57.46
74936;BME280;63501;55.570;37.488;2023-05-19T08:19:57;99800.47;;;15.14;58.04
74936;BME280;63501;55.570;37.488;2023-05-19T08:22:24;99798.13;;;15.08;56.85
74936;BME280;63501;55.570;37.488;2023-05-19T08:24:51;99797.31;;;15.12;57.36
74936;BME280;63501;55.570;37.488;2023-05-19T08:27:18;99810.81;;;15.17;56.71
74936;BME280;63501;55.570;37.488;2023-05-19T08:29:45;99800.75;;;15.26;56.88
74936;BME280;63501;55.570;37.488;2023-05-19T08:32:12;99800.94;;;15.43;56.50
74936;BME280;63501;55.570;37.488;2023-05-19T08:34:41;99791.97;;;15.62;56.03
74936;BME280;63501;55.570;37.488;2023-05-19T08:37:08;99794.47;;;15.87;55.31
74936;BME280;63501;55.570;37.488;2023-05-19T08:39:36;99795.44;;;16.04;54.08
74936;BME280;63501;55.570;37.488;2023-05-19T08:42:03;99802.44;;;16.16;54.71
74936;BME280;63501;55.570;37.488;2023-05-19T08:44:32;99809.50;;;16.24;54.07
74936;BME280;63501;55.570;37.488;2023-05-19T08:47:01;99796.34;;;16.24;53.64
74936;BME280;63501;55.570;37.488;2023-05-19T08:49:32;99801.44;;;16.29;53.74
74936;BME280;63501;55.570;37.488;2023-05-19T08:52:08;99800.44;;;16.43;52.84
74936;BME280;63501;55.570;37.488;2023-05-19T08:54:45;99799.00;;;16.58;52.54
74936;BME280;63501;55.570;37.488;2023-05-19T08:57:15;99794.06;;;16.66;52.02
74936;BME280;63501;55.570;37.488;2023-05-19T08:59:42;99798.91;;;17.32;51.02
74936;BME280;63501;55.570;37.488;2023-05-19T09:02:10;99781.50;;;18.37;48.78
74936;BME280;63501;55.570;37.488;2023-05-19T09:04:39;99784.53;;;19.53;46.49
74936;BME280;63501;55.570;37.488;2023-05-19T09:07:12;99781.72;;;19.53;46.16
74936;BME280;63501;55.570;37.488;2023-05-19T09:09:40;99777.50;;;19.61;45.92
74936;BME280;63501;55.570;37.488;2023-05-19T09:12:08;99782.22;;;19.64;45.01
74936;BME280;63501;55.570;37.488;2023-05-19T09:14:35;99786.16;;;19.67;45.15
74936;BME280;63501;55.570;37.488;2023-05-19T09:17:03;99784.88;;;20.22;44.20
74936;BME280;63501;55.570;37.488;2023-05-19T09:19:30;99786.31;;;20.78;42.02
74936;BME280;63501;55.570;37.488;2023-05-19T09:21:57;99780.47;;;21.42;41.40
74936;BME280;63501;55.570;37.488;2023-05-19T09:24:27;99765.56;;;22.47;39.42
74936;BME280;63501;55.570;37.488;2023-05-19T09:26:55;99763.34;;;23.28;38.13
74936;BME280;63501;55.570;37.488;2023-05-19T09:29:22;99759.84;;;23.79;36.53
74936;BME280;63501;55.570;37.488;2023-05-19T09:31:50;99755.78;;;24.22;35.46
74936;BME280;63501;55.570;37.488;2023-05-19T09:34:19;99758.56;;;24.32;34.22
74936;BME280;63501;55.570;37.488;2023-05-19T09:36:47;99767.41;;;24.15;33.71
74936;BME280;63501;55.570;37.488;2023-05-19T09:39:15;99756.91;;;23.64;33.06
74936;BME280;63501;55.570;37.488;2023-05-19T09:41:44;99767.75;;;23.02;33.30
74936;BME280;63501;55.570;37.488;2023-05-19T09:44:12;99768.38;;;23.15;33.22
74936;BME280;63501;55.570;37.488;2023-05-19T09:46:49;99764.13;;;23.47;32.06
74936;BME280;63501;55.570;37.488;2023-05-19T09:49:20;99764.97;;;23.90;31.96
74936;BME280;63501;55.570;37.488;2023-05-19T09:51:53;99765.91;;;24.47;31.55
74936;BME280;63501;55.570;37.488;2023-05-19T09:54:21;99762.06;;;24.60;30.59
74936;BME280;63501;55.570;37.488;2023-05-19T09:56:57;99757.41;;;24.71;30.34
74936;BME280;63501;55.570;37.488;2023-05-19T09:59:25;99755.56;;;24.92;29.88
74936;BME280;63501;55.570;37.488;2023-05-19T10:01:53;99756.66;;;25.33;29.71
74936;BME280;63501;55.570;37.488;2023-05-19T10:04:21;99761.78;;;25.59;29.69
74936;BME280;63501;55.570;37.488;2023-05-19T10:06:50;99756.88;;;25.59;29.28
74936;BME280;63501;55.570;37.488;2023-05-19T10:09:21;99756.13;;;25.74;29.50
74936;BME280;63501;55.570;37.488;2023-05-19T10:11:50;99762.75;;;25.85;29.02
74936;BME280;63501;55.570;37.488;2023-05-19T10:14:21;99758.72;;;25.63;29.19
74936;BME280;63501;55.570;37.488;2023-05-19T10:16:50;99761.47;;;25.42;29.75
74936;BME280;63501;55.570;37.488;2023-05-19T10:19:20;99761.31;;;25.22;29.31
74936;BME280;63501;55.570;37.488;2023-05-19T10:21:47;99764.94;;;24.98;29.32
74936;BME280;63501;55.570;37.488;2023-05-19T10:24:14;99758.50;;;24.98;29.54
74936;BME280;63501;55.570;37.488;2023-05-19T10:26:48;99776.31;;;25.13;29.15
74936;BME280;63501;55.570;37.488;2023-05-19T10:29:20;99762.38;;;25.24;29.24
74936;BME280;63501;55.570;37.488;2023-05-19T10:31:50;99756.81;;;25.30;28.91
74936;BME280;63501;55.570;37.488;2023-05-19T10:34:33;99757.72;;;25.21;28.62
74936;BME280;63501;55.570;37.488;2023-05-19T10:37:12;99760.22;;;24.95;28.71
74936;BME280;63501;55.570;37.488;2023-05-19T10:39:42;99761.28;;;24.59;29.37
74936;BME280;63501;55.570;37.488;2023-05-19T10:42:14;99758.34;;;24.44;29.37
74936;BME280;63501;55.570;37.488;2023-05-19T10:44:52;99754.34;;;24.36;29.16
74936;BME280;63501;55.570;37.488;2023-05-19T10:47:23;99767.94;;;23.95;29.44
74936;BME280;63501;55.570;37.488;2023-05-19T10:49:51;99772.72;;;23.62;29.97
74936;BME280;63501;55.570;37.488;2023-05-19T10:52:19;99767.53;;;23.60;29.75
74936;BME280;63501;55.570;37.488;2023-05-19T10:54:50;99763.13;;;23.87;29.70
74936;BME280;63501;55.570;37.488;2023-05-19T10:57:20;99765.44;;;23.97;29.56
74936;BME280;63501;55.570;37.488;2023-05-19T10:59:54;99763.69;;;24.09;29.42
74936;BME280;63501;55.570;37.488;2023-05-19T11:02:40;99769.63;;;24.11;29.25
74936;BME280;63501;55.570;37.488;2023-05-19T11:05:07;99763.59;;;23.85;29.83
74936;BME280;63501;55.570;37.488;2023-05-19T11:07:35;99766.09;;;23.83;29.74
74936;BME280;63501;55.570;37.488;2023-05-19T11:10:05;99763.91;;;23.87;29.71
74936;BME280;63501;55.570;37.488;2023-05-19T11:12:39;99763.59;;;23.85;29.58
74936;BME280;63501;55.570;37.488;2023-05-19T11:15:14;99767.66;;;23.93;29.34
74936;BME280;63501;55.570;37.488;2023-05-19T11:17:44;99762.94;;;23.90;29.12
74936;BME280;63501;55.570;37.488;2023-05-19T11:20:20;99765.53;;;23.52;29.40
74936;BME280;63501;55.570;37.488;2023-05-19T11:23:04;99771.50;;;23.08;29.94
74936;BME280;63501;55.570;37.488;2023-05-19T11:25:42;99773.28;;;22.65;29.85
74936;BME280;63501;55.570;37.488;2023-05-19T11:28:10;99773.31;;;22.25;30.57
74936;BME280;63501;55.570;37.488;2023-05-19T11:30:43;99778.03;;;21.97;30.24
74936;BME280;63501;55.570;37.488;2023-05-19T11:33:11;99776.59;;;21.70;30.77
74936;BME280;63501;55.570;37.488;2023-05-19T11:35:38;99781.13;;;21.46;30.74
74936;BME280;63501;55.570;37.488;2023-05-19T11:38:06;99785.78;;;21.05;31.52
74936;BME280;63501;55.570;37.488;2023-05-19T11:40:33;99785.28;;;20.84;31.22
74936;BME280;63501;55.570;37.488;2023-05-19T11:43:00;99791.81;;;20.69;32.07
74936;BME280;63501;55.570;37.488;2023-05-19T11:45:28;99786.88;;;20.73;31.13
74936;BME280;63501;55.570;37.488;2023-05-19T11:47:58;99784.38;;;20.75;32.45
74936;BME280;63501;55.570;37.488;2023-05-19T11:50:25;99795.97;;;20.77;31.90
74936;BME280;63501;55.570;37.488;2023-05-19T11:52:53;99796.41;;;20.75;31.32
74936;BME280;63501;55.570;37.488;2023-05-19T11:55:21;99794.06;;;20.74;31.91
74936;BME280;63501;55.570;37.488;2023-05-19T11:57:55;99787.66;;;20.73;31.93
74936;BME280;63501;55.570;37.488;2023-05-19T12:00:23;99790.44;;;20.86;31.41
74936;BME280;63501;55.570;37.488;2023-05-19T12:02:50;99783.66;;;20.96;32.19
74936;BME280;63501;55.570;37.488;2023-05-19T12:05:20;99779.19;;;20.86;32.29
74936;BME280;63501;55.570;37.488;2023-05-19T12:07:47;99793.75;;;20.72;32.16
74936;BME280;63501;55.570;37.488;2023-05-19T12:10:16;99781.94;;;20.77;31.44
74936;BME280;63501;55.570;37.488;2023-05-19T12:12:45;99789.78;;;20.82;31.84
74936;BME280;63501;55.570;37.488;2023-05-19T12:15:14;99787.31;;;20.84;31.48
74936;BME280;63501;55.570;37.488;2023-05-19T12:17:41;99791.56;;;20.89;32.17
74936;BME280;63501;55.570;37.488;2023-05-19T12:20:11;99790.94;;;21.06;31.89
74936;BME280;63501;55.570;37.488;2023-05-19T12:22:40;99790.38;;;21.11;32.58
74936;BME280;63501;55.570;37.488;2023-05-19T12:25:08;99790.50;;;21.08;31.35
74936;BME280;63501;55.570;37.488;2023-05-19T12:27:35;99799.44;;;20.94;31.28
74936;BME280;63501;55.570;37.488;2023-05-19T12:30:04;99798.00;;;20.76;31.47
74936;BME280;63501;55.570;37.488;2023-05-19T12:32:32;99791.38;;;20.70;31.56
74936;BME280;63501;55.570;37.488;2023-05-19T12:35:02;99810.47;;;20.75;31.41
74936;BME280;63501;55.570;37.488;2023-05-19T12:37:31;99800.59;;;20.71;31.67
74936;BME280;63501;55.570;37.488;2023-05-19T12:40:01;99798.00;;;20.64;31.36
74936;BME280;63501;55.570;37.488;2023-05-19T12:42:30;99804.75;;;20.66;31.95
74936;BME280;63501;55.570;37.488;2023-05-19T12:44:57;99803.63;;;20.76;32.04
74936;BME280;63501;55.570;37.488;2023-05-19T12:47:28;99804.94;;;20.84;31.26
74936;BME280;63501;55.570;37.488;2023-05-19T12:49:59;99808.31;;;20.79;31.56
74936;BME280;63501;55.570;37.488;2023-05-19T12:52:28;99800.72;;;20.67;31.15
74936;BME280;63501;55.570;37.488;2023-05-19T12:54:59;99805.88;;;20.56;31.17
74936;BME280;63501;55.570;37.488;2023-05-19T12:57:28;99806.78;;;20.53;30.73
74936;BME280;63501;55.570;37.488;2023-05-19T13:00:00;99805.66;;;20.63;30.95